Aurora, Nebraska
Current Conditions -  °F | °C
As of 4:35 PM on Thursday 20 Nov 2014 (Local Time) from KAUH Reporting Station
Clear Clear  
Wind Chill: 23°   Ceiling: Unl
Heat Index: 31°   Visibility: 10mi
Dew Point: 23°   Wind: 9mph
Humidity: 71%   Direction: 100°E
Pressure: 30.13"   Gusts: NA
Location:  40.87°N, 98°W
Report Text: KAUH 202235Z AUTO 10008KT 10SM CLR 00/M05 A3013 RMK AO2 T10051051
Loading
Personal Weather Stations






























Interactive Weather Map New forecast layout! Learn more

10-Day Weather Forecast

Advertisements
Track Severe Weather on mobile